sensor_id;sensor_type;location;lat;lon;timestamp;P1;durP1;ratioP1;P2;durP2;ratioP2
18507;SDS011;9383;50.928;12.116;2022-09-27T00:00:42;1.65;;;1.33;;
18507;SDS011;9383;50.928;12.116;2022-09-27T00:03:10;1.63;;;1.40;;
18507;SDS011;9383;50.928;12.116;2022-09-27T00:05:37;2.83;;;1.25;;
18507;SDS011;9383;50.928;12.116;2022-09-27T00:08:08;3.45;;;1.67;;
18507;SDS011;9383;50.928;12.116;2022-09-27T00:10:34;1.95;;;1.33;;
18507;SDS011;9383;50.928;12.116;2022-09-27T00:13:01;2.92;;;1.63;;
18507;SDS011;9383;50.928;12.116;2022-09-27T00:15:27;1.95;;;1.52;;
18507;SDS011;9383;50.928;12.116;2022-09-27T00:17:53;1.13;;;1.13;;
18507;SDS011;9383;50.928;12.116;2022-09-27T00:20:19;3.13;;;1.38;;
18507;SDS011;9383;50.928;12.116;2022-09-27T00:22:46;1.33;;;1.27;;
18507;SDS011;9383;50.928;12.116;2022-09-27T00:25:14;1.83;;;1.55;;
18507;SDS011;9383;50.928;12.116;2022-09-27T00:27:41;2.95;;;1.40;;
18507;SDS011;9383;50.928;12.116;2022-09-27T00:30:09;1.65;;;1.40;;
18507;SDS011;9383;50.928;12.116;2022-09-27T00:32:36;1.35;;;1.25;;
18507;SDS011;9383;50.928;12.116;2022-09-27T00:35:02;1.65;;;1.52;;
18507;SDS011;9383;50.928;12.116;2022-09-27T00:37:29;2.95;;;1.40;;
18507;SDS011;9383;50.928;12.116;2022-09-27T00:39:56;1.70;;;1.40;;
18507;SDS011;9383;50.928;12.116;2022-09-27T00:42:22;1.85;;;1.20;;
18507;SDS011;9383;50.928;12.116;2022-09-27T00:47:55;1.27;;;1.17;;
18507;SDS011;9383;50.928;12.116;2022-09-27T00:53:09;1.25;;;1.23;;
18507;SDS011;9383;50.928;12.116;2022-09-27T00:55:59;1.35;;;1.15;;
18507;SDS011;9383;50.928;12.116;2022-09-27T00:58:33;1.30;;;1.10;;
18507;SDS011;9383;50.928;12.116;2022-09-27T01:01:08;1.13;;;1.02;;
18507;SDS011;9383;50.928;12.116;2022-09-27T01:03:42;1.90;;;1.27;;
18507;SDS011;9383;50.928;12.116;2022-09-27T01:06:30;1.10;;;1.00;;
18507;SDS011;9383;50.928;12.116;2022-09-27T01:08:56;1.45;;;1.27;;
18507;SDS011;9383;50.928;12.116;2022-09-27T01:14:23;1.02;;;1.02;;
18507;SDS011;9383;50.928;12.116;2022-09-27T01:26:42;1.77;;;1.30;;
18507;SDS011;9383;50.928;12.116;2022-09-27T01:32:32;1.38;;;1.27;;
18507;SDS011;9383;50.928;12.116;2022-09-27T01:41:30;4.28;;;1.40;;
18507;SDS011;9383;50.928;12.116;2022-09-27T01:47:03;2.22;;;1.20;;
18507;SDS011;9383;50.928;12.116;2022-09-27T01:49:52;1.58;;;1.40;;
18507;SDS011;9383;50.928;12.116;2022-09-27T01:52:29;1.20;;;1.10;;
18507;SDS011;9383;50.928;12.116;2022-09-27T01:55:04;1.92;;;1.17;;
18507;SDS011;9383;50.928;12.116;2022-09-27T01:57:39;1.25;;;1.17;;
18507;SDS011;9383;50.928;12.116;2022-09-27T02:00:13;1.00;;;0.90;;
18507;SDS011;9383;50.928;12.116;2022-09-27T02:02:48;2.80;;;1.25;;
18507;SDS011;9383;50.928;12.116;2022-09-27T02:05:34;0.90;;;0.90;;
18507;SDS011;9383;50.928;12.116;2022-09-27T02:08:11;1.17;;;1.08;;
18507;SDS011;9383;50.928;12.116;2022-09-27T02:10:53;0.77;;;0.77;;
18507;SDS011;9383;50.928;12.116;2022-09-27T02:14:14;0.85;;;0.85;;
18507;SDS011;9383;50.928;12.116;2022-09-27T02:16:41;1.15;;;1.02;;
18507;SDS011;9383;50.928;12.116;2022-09-27T02:25:28;0.77;;;0.65;;
18507;SDS011;9383;50.928;12.116;2022-09-27T02:28:21;0.70;;;0.70;;
18507;SDS011;9383;50.928;12.116;2022-09-27T02:30:55;0.80;;;0.80;;
18507;SDS011;9383;50.928;12.116;2022-09-27T02:33:23;1.23;;;0.88;;
18507;SDS011;9383;50.928;12.116;2022-09-27T02:36:00;3.53;;;1.10;;
18507;SDS011;9383;50.928;12.116;2022-09-27T02:38:26;0.90;;;0.90;;
18507;SDS011;9383;50.928;12.116;2022-09-27T02:40:53;3.20;;;0.88;;
18507;SDS011;9383;50.928;12.116;2022-09-27T02:43:19;0.70;;;0.70;;
18507;SDS011;9383;50.928;12.116;2022-09-27T02:52:07;0.65;;;0.65;;
18507;SDS011;9383;50.928;12.116;2022-09-27T02:55:10;1.45;;;0.50;;
18507;SDS011;9383;50.928;12.116;2022-09-27T03:00:17;1.08;;;0.80;;
18507;SDS011;9383;50.928;12.116;2022-09-27T03:03:12;0.70;;;0.63;;
18507;SDS011;9383;50.928;12.116;2022-09-27T03:05:55;0.73;;;0.60;;
18507;SDS011;9383;50.928;12.116;2022-09-27T03:08:36;0.85;;;0.70;;
18507;SDS011;9383;50.928;12.116;2022-09-27T03:11:03;0.57;;;0.57;;
18507;SDS011;9383;50.928;12.116;2022-09-27T03:13:30;1.55;;;1.02;;
18507;SDS011;9383;50.928;12.116;2022-09-27T03:15:59;1.17;;;0.70;;
18507;SDS011;9383;50.928;12.116;2022-09-27T03:18:25;1.30;;;0.95;;
18507;SDS011;9383;50.928;12.116;2022-09-27T03:20:52;0.98;;;0.70;;
18507;SDS011;9383;50.928;12.116;2022-09-27T03:23:19;0.52;;;0.52;;
18507;SDS011;9383;50.928;12.116;2022-09-27T03:25:45;0.50;;;0.50;;
18507;SDS011;9383;50.928;12.116;2022-09-27T03:28:12;0.50;;;0.50;;
18507;SDS011;9383;50.928;12.116;2022-09-27T03:30:38;0.70;;;0.70;;
18507;SDS011;9383;50.928;12.116;2022-09-27T03:33:06;0.80;;;0.52;;
18507;SDS011;9383;50.928;12.116;2022-09-27T03:35:33;1.35;;;0.55;;
18507;SDS011;9383;50.928;12.116;2022-09-27T03:38:00;1.60;;;0.82;;
18507;SDS011;9383;50.928;12.116;2022-09-27T03:40:26;0.68;;;0.68;;
18507;SDS011;9383;50.928;12.116;2022-09-27T03:42:52;0.52;;;0.52;;
18507;SDS011;9383;50.928;12.116;2022-09-27T03:45:19;1.88;;;0.65;;
18507;SDS011;9383;50.928;12.116;2022-09-27T03:47:46;0.70;;;0.70;;
18507;SDS011;9383;50.928;12.116;2022-09-27T03:50:12;0.70;;;0.70;;
18507;SDS011;9383;50.928;12.116;2022-09-27T03:52:41;0.73;;;0.73;;
18507;SDS011;9383;50.928;12.116;2022-09-27T03:55:08;0.60;;;0.60;;
18507;SDS011;9383;50.928;12.116;2022-09-27T03:57:35;0.95;;;0.80;;
18507;SDS011;9383;50.928;12.116;2022-09-27T04:00:02;0.63;;;0.45;;
18507;SDS011;9383;50.928;12.116;2022-09-27T04:02:30;0.68;;;0.52;;
18507;SDS011;9383;50.928;12.116;2022-09-27T04:04:57;0.80;;;0.60;;
18507;SDS011;9383;50.928;12.116;2022-09-27T04:07:24;0.50;;;0.50;;
18507;SDS011;9383;50.928;12.116;2022-09-27T04:09:51;1.05;;;0.95;;
18507;SDS011;9383;50.928;12.116;2022-09-27T04:12:17;1.65;;;0.90;;
18507;SDS011;9383;50.928;12.116;2022-09-27T04:14:43;0.98;;;0.85;;
18507;SDS011;9383;50.928;12.116;2022-09-27T04:17:09;1.10;;;0.93;;
18507;SDS011;9383;50.928;12.116;2022-09-27T04:19:35;0.95;;;0.95;;
18507;SDS011;9383;50.928;12.116;2022-09-27T04:22:02;1.52;;;0.90;;
18507;SDS011;9383;50.928;12.116;2022-09-27T04:24:29;0.95;;;0.90;;
18507;SDS011;9383;50.928;12.116;2022-09-27T04:26:56;0.98;;;0.98;;
18507;SDS011;9383;50.928;12.116;2022-09-27T04:29:22;1.50;;;1.02;;
18507;SDS011;9383;50.928;12.116;2022-09-27T04:31:48;0.80;;;0.80;;
18507;SDS011;9383;50.928;12.116;2022-09-27T04:34:15;0.90;;;0.90;;
18507;SDS011;9383;50.928;12.116;2022-09-27T04:36:42;1.20;;;1.10;;
18507;SDS011;9383;50.928;12.116;2022-09-27T04:39:08;0.95;;;0.95;;
18507;SDS011;9383;50.928;12.116;2022-09-27T04:41:35;5.40;;;0.98;;
18507;SDS011;9383;50.928;12.116;2022-09-27T04:44:01;1.77;;;0.77;;
18507;SDS011;9383;50.928;12.116;2022-09-27T04:46:36;0.70;;;0.70;;
18507;SDS011;9383;50.928;12.116;2022-09-27T04:49:03;0.90;;;0.90;;
18507;SDS011;9383;50.928;12.116;2022-09-27T04:51:32;1.35;;;0.90;;
18507;SDS011;9383;50.928;12.116;2022-09-27T04:53:58;0.65;;;0.65;;
18507;SDS011;9383;50.928;12.116;2022-09-27T04:56:24;2.40;;;0.77;;
18507;SDS011;9383;50.928;12.116;2022-09-27T04:58:51;1.27;;;0.77;;
18507;SDS011;9383;50.928;12.116;2022-09-27T05:01:18;0.70;;;0.70;;
18507;SDS011;9383;50.928;12.116;2022-09-27T05:03:44;1.45;;;0.80;;
18507;SDS011;9383;50.928;12.116;2022-09-27T05:06:11;1.00;;;0.95;;
18507;SDS011;9383;50.928;12.116;2022-09-27T05:08:37;1.08;;;0.80;;
18507;SDS011;9383;50.928;12.116;2022-09-27T05:11:04;0.90;;;0.90;;
18507;SDS011;9383;50.928;12.116;2022-09-27T05:13:30;1.15;;;0.95;;
18507;SDS011;9383;50.928;12.116;2022-09-27T05:16:00;1.40;;;1.30;;
18507;SDS011;9383;50.928;12.116;2022-09-27T05:18:29;0.57;;;0.57;;
18507;SDS011;9383;50.928;12.116;2022-09-27T05:20:55;0.80;;;0.80;;
18507;SDS011;9383;50.928;12.116;2022-09-27T05:23:23;0.85;;;0.75;;
18507;SDS011;9383;50.928;12.116;2022-09-27T05:25:58;1.33;;;0.70;;
18507;SDS011;9383;50.928;12.116;2022-09-27T05:28:34;1.00;;;0.88;;
18507;SDS011;9383;50.928;12.116;2022-09-27T05:31:10;0.60;;;0.60;;
18507;SDS011;9383;50.928;12.116;2022-09-27T05:33:38;0.60;;;0.60;;
18507;SDS011;9383;50.928;12.116;2022-09-27T05:36:10;0.60;;;0.60;;
18507;SDS011;9383;50.928;12.116;2022-09-27T05:38:37;0.88;;;0.82;;
18507;SDS011;9383;50.928;12.116;2022-09-27T05:41:04;1.65;;;1.10;;
18507;SDS011;9383;50.928;12.116;2022-09-27T05:43:30;1.63;;;0.77;;
18507;SDS011;9383;50.928;12.116;2022-09-27T05:45:56;0.70;;;0.70;;
18507;SDS011;9383;50.928;12.116;2022-09-27T05:48:23;0.90;;;0.90;;
18507;SDS011;9383;50.928;12.116;2022-09-27T05:50:49;0.70;;;0.70;;
18507;SDS011;9383;50.928;12.116;2022-09-27T05:53:16;0.95;;;0.88;;
18507;SDS011;9383;50.928;12.116;2022-09-27T05:55:42;0.77;;;0.77;;
18507;SDS011;9383;50.928;12.116;2022-09-27T05:58:09;1.52;;;0.80;;
18507;SDS011;9383;50.928;12.116;2022-09-27T06:00:38;0.85;;;0.85;;
18507;SDS011;9383;50.928;12.116;2022-09-27T06:03:04;0.77;;;0.77;;
18507;SDS011;9383;50.928;12.116;2022-09-27T06:05:35;1.23;;;0.75;;
18507;SDS011;9383;50.928;12.116;2022-09-27T06:08:08;1.17;;;1.08;;
18507;SDS011;9383;50.928;12.116;2022-09-27T06:10:36;1.70;;;1.02;;
18507;SDS011;9383;50.928;12.116;2022-09-27T06:13:25;1.05;;;0.90;;
18507;SDS011;9383;50.928;12.116;2022-09-27T06:15:51;1.30;;;0.73;;
18507;SDS011;9383;50.928;12.116;2022-09-27T06:18:18;1.02;;;0.65;;
18507;SDS011;9383;50.928;12.116;2022-09-27T06:20:45;2.35;;;0.70;;
18507;SDS011;9383;50.928;12.116;2022-09-27T06:23:12;2.95;;;1.10;;
18507;SDS011;9383;50.928;12.116;2022-09-27T06:25:41;2.65;;;0.77;;
18507;SDS011;9383;50.928;12.116;2022-09-27T06:28:08;0.80;;;0.80;;
18507;SDS011;9383;50.928;12.116;2022-09-27T06:30:39;1.00;;;1.00;;
18507;SDS011;9383;50.928;12.116;2022-09-27T06:33:08;1.00;;;0.77;;
18507;SDS011;9383;50.928;12.116;2022-09-27T06:35:41;0.80;;;0.68;;
18507;SDS011;9383;50.928;12.116;2022-09-27T06:38:10;0.60;;;0.60;;
18507;SDS011;9383;50.928;12.116;2022-09-27T06:40:52;0.80;;;0.70;;
18507;SDS011;9383;50.928;12.116;2022-09-27T06:43:18;0.90;;;0.70;;
18507;SDS011;9383;50.928;12.116;2022-09-27T06:45:46;0.93;;;0.93;;
18507;SDS011;9383;50.928;12.116;2022-09-27T06:48:13;0.73;;;0.73;;
18507;SDS011;9383;50.928;12.116;2022-09-27T06:50:42;1.58;;;0.88;;
18507;SDS011;9383;50.928;12.116;2022-09-27T06:53:11;1.60;;;0.70;;
18507;SDS011;9383;50.928;12.116;2022-09-27T06:55:40;1.67;;;1.00;;
18507;SDS011;9383;50.928;12.116;2022-09-27T06:58:08;0.63;;;0.60;;
18507;SDS011;9383;50.928;12.116;2022-09-27T07:00:54;0.57;;;0.55;;
18507;SDS011;9383;50.928;12.116;2022-09-27T07:03:21;1.42;;;0.60;;
18507;SDS011;9383;50.928;12.116;2022-09-27T07:05:58;0.35;;;0.35;;
18507;SDS011;9383;50.928;12.116;2022-09-27T07:08:28;0.40;;;0.40;;
18507;SDS011;9383;50.928;12.116;2022-09-27T07:11:00;0.75;;;0.50;;
18507;SDS011;9383;50.928;12.116;2022-09-27T07:13:30;1.42;;;0.70;;
18507;SDS011;9383;50.928;12.116;2022-09-27T07:15:59;1.02;;;0.73;;
18507;SDS011;9383;50.928;12.116;2022-09-27T07:18:26;0.85;;;0.60;;
18507;SDS011;9383;50.928;12.116;2022-09-27T07:20:53;1.40;;;0.82;;
18507;SDS011;9383;50.928;12.116;2022-09-27T07:23:19;1.27;;;0.50;;
18507;SDS011;9383;50.928;12.116;2022-09-27T07:25:46;2.15;;;0.68;;
18507;SDS011;9383;50.928;12.116;2022-09-27T07:28:16;0.50;;;0.45;;
18507;SDS011;9383;50.928;12.116;2022-09-27T07:30:43;0.40;;;0.32;;
18507;SDS011;9383;50.928;12.116;2022-09-27T07:33:10;0.60;;;0.60;;
18507;SDS011;9383;50.928;12.116;2022-09-27T07:35:40;0.68;;;0.40;;
18507;SDS011;9383;50.928;12.116;2022-09-27T07:38:09;1.95;;;0.52;;
18507;SDS011;9383;50.928;12.116;2022-09-27T07:40:41;0.70;;;0.65;;
18507;SDS011;9383;50.928;12.116;2022-09-27T07:43:07;0.65;;;0.52;;
18507;SDS011;9383;50.928;12.116;2022-09-27T07:45:34;0.50;;;0.50;;
18507;SDS011;9383;50.928;12.116;2022-09-27T07:48:09;0.47;;;0.47;;
18507;SDS011;9383;50.928;12.116;2022-09-27T07:50:40;0.60;;;0.60;;
18507;SDS011;9383;50.928;12.116;2022-09-27T07:53:06;0.65;;;0.50;;
18507;SDS011;9383;50.928;12.116;2022-09-27T07:55:39;0.75;;;0.50;;
18507;SDS011;9383;50.928;12.116;2022-09-27T07:58:07;1.48;;;0.70;;
18507;SDS011;9383;50.928;12.116;2022-09-27T08:00:36;2.03;;;0.40;;
18507;SDS011;9383;50.928;12.116;2022-09-27T08:03:07;0.38;;;0.38;;
18507;SDS011;9383;50.928;12.116;2022-09-27T08:05:39;2.17;;;0.50;;
18507;SDS011;9383;50.928;12.116;2022-09-27T08:08:07;1.08;;;0.52;;
18507;SDS011;9383;50.928;12.116;2022-09-27T08:10:34;1.50;;;0.40;;
18507;SDS011;9383;50.928;12.116;2022-09-27T08:13:00;0.50;;;0.47;;
18507;SDS011;9383;50.928;12.116;2022-09-27T08:15:30;0.52;;;0.52;;
18507;SDS011;9383;50.928;12.116;2022-09-27T08:17:57;0.57;;;0.35;;
18507;SDS011;9383;50.928;12.116;2022-09-27T08:20:24;0.50;;;0.50;;
18507;SDS011;9383;50.928;12.116;2022-09-27T08:22:50;0.57;;;0.43;;
18507;SDS011;9383;50.928;12.116;2022-09-27T08:25:17;0.68;;;0.40;;
18507;SDS011;9383;50.928;12.116;2022-09-27T08:27:44;0.60;;;0.60;;
18507;SDS011;9383;50.928;12.116;2022-09-27T08:30:23;0.30;;;0.30;;
18507;SDS011;9383;50.928;12.116;2022-09-27T08:32:56;4.40;;;1.98;;
18507;SDS011;9383;50.928;12.116;2022-09-27T08:35:28;1.48;;;0.82;;
18507;SDS011;9383;50.928;12.116;2022-09-27T08:37:58;1.10;;;1.00;;
18507;SDS011;9383;50.928;12.116;2022-09-27T08:40:30;2.08;;;0.50;;
18507;SDS011;9383;50.928;12.116;2022-09-27T08:43:43;1.00;;;1.00;;
18507;SDS011;9383;50.928;12.116;2022-09-27T08:49:03;1.85;;;1.50;;
18507;SDS011;9383;50.928;12.116;2022-09-27T08:51:36;0.82;;;0.77;;
18507;SDS011;9383;50.928;12.116;2022-09-27T08:54:15;0.40;;;0.40;;
18507;SDS011;9383;50.928;12.116;2022-09-27T08:56:52;0.60;;;0.60;;
18507;SDS011;9383;50.928;12.116;2022-09-27T08:59:23;0.60;;;0.50;;
18507;SDS011;9383;50.928;12.116;2022-09-27T09:01:54;1.52;;;0.50;;
18507;SDS011;9383;50.928;12.116;2022-09-27T09:04:29;0.50;;;0.50;;
18507;SDS011;9383;50.928;12.116;2022-09-27T09:09:46;1.23;;;1.13;;
18507;SDS011;9383;50.928;12.116;2022-09-27T09:12:26;1.10;;;1.10;;
18507;SDS011;9383;50.928;12.116;2022-09-27T09:15:47;1.70;;;1.60;;
18507;SDS011;9383;50.928;12.116;2022-09-27T09:21:58;1.10;;;0.90;;
18507;SDS011;9383;50.928;12.116;2022-09-27T09:24:48;1.10;;;1.10;;
18507;SDS011;9383;50.928;12.116;2022-09-27T09:33:38;0.77;;;0.50;;
18507;SDS011;9383;50.928;12.116;2022-09-27T09:36:21;0.60;;;0.60;;
18507;SDS011;9383;50.928;12.116;2022-09-27T09:39:05;0.40;;;0.40;;
18507;SDS011;9383;50.928;12.116;2022-09-27T09:41:44;0.40;;;0.40;;
18507;SDS011;9383;50.928;12.116;2022-09-27T09:44:31;1.02;;;0.65;;
18507;SDS011;9383;50.928;12.116;2022-09-27T09:48:12;2.38;;;0.80;;
18507;SDS011;9383;50.928;12.116;2022-09-27T09:50:58;1.02;;;0.77;;
18507;SDS011;9383;50.928;12.116;2022-09-27T09:56:29;0.45;;;0.40;;
18507;SDS011;9383;50.928;12.116;2022-09-27T09:59:14;0.30;;;0.30;;
18507;SDS011;9383;50.928;12.116;2022-09-27T10:01:53;0.43;;;0.43;;
18507;SDS011;9383;50.928;12.116;2022-09-27T10:04:28;0.35;;;0.35;;
18507;SDS011;9383;50.928;12.116;2022-09-27T10:06:57;1.20;;;0.38;;
18507;SDS011;9383;50.928;12.116;2022-09-27T10:09:26;0.57;;;0.52;;
18507;SDS011;9383;50.928;12.116;2022-09-27T10:11:53;0.40;;;0.40;;
18507;SDS011;9383;50.928;12.116;2022-09-27T10:14:20;0.57;;;0.57;;
18507;SDS011;9383;50.928;12.116;2022-09-27T10:16:48;1.33;;;0.75;;
18507;SDS011;9383;50.928;12.116;2022-09-27T10:19:30;0.70;;;0.57;;
18507;SDS011;9383;50.928;12.116;2022-09-27T10:22:46;0.80;;;0.50;;
18507;SDS011;9383;50.928;12.116;2022-09-27T10:25:01;0.60;;;0.60;;
18507;SDS011;9383;50.928;12.116;2022-09-27T10:32:57;0.60;;;0.47;;
18507;SDS011;9383;50.928;12.116;2022-09-27T10:40:45;1.30;;;1.20;;
18507;SDS011;9383;50.928;12.116;2022-09-27T10:43:28;1.63;;;0.77;;
18507;SDS011;9383;50.928;12.116;2022-09-27T10:46:09;0.70;;;0.70;;
18507;SDS011;9383;50.928;12.116;2022-09-27T10:49:07;0.70;;;0.70;;
18507;SDS011;9383;50.928;12.116;2022-09-27T10:51:41;1.08;;;0.90;;
18507;SDS011;9383;50.928;12.116;2022-09-27T10:59:38;0.50;;;0.50;;
18507;SDS011;9383;50.928;12.116;2022-09-27T11:02:27;0.70;;;0.70;;
18507;SDS011;9383;50.928;12.116;2022-09-27T11:05:02;0.77;;;0.75;;
18507;SDS011;9383;50.928;12.116;2022-09-27T11:08:06;0.75;;;0.75;;
18507;SDS011;9383;50.928;12.116;2022-09-27T11:11:04;1.25;;;0.75;;
18507;SDS011;9383;50.928;12.116;2022-09-27T11:13:58;0.68;;;0.68;;
18507;SDS011;9383;50.928;12.116;2022-09-27T11:25:09;1.02;;;0.90;;
18507;SDS011;9383;50.928;12.116;2022-09-27T11:30:49;0.77;;;0.77;;
18507;SDS011;9383;50.928;12.116;2022-09-27T11:36:46;3.63;;;1.50;;
18507;SDS011;9383;50.928;12.116;2022-09-27T11:49:12;1.27;;;1.15;;
18507;SDS011;9383;50.928;12.116;2022-09-27T12:00:49;0.90;;;0.80;;
18507;SDS011;9383;50.928;12.116;2022-09-27T12:03:58;1.52;;;0.70;;
18507;SDS011;9383;50.928;12.116;2022-09-27T12:06:39;0.88;;;0.70;;
18507;SDS011;9383;50.928;12.116;2022-09-27T12:09:33;1.75;;;1.65;;
18507;SDS011;9383;50.928;12.116;2022-09-27T12:12:17;0.90;;;0.90;;
18507;SDS011;9383;50.928;12.116;2022-09-27T12:14:57;3.33;;;2.63;;
18507;SDS011;9383;50.928;12.116;2022-09-27T12:17:37;2.70;;;2.10;;
18507;SDS011;9383;50.928;12.116;2022-09-27T12:20:16;3.53;;;2.00;;
18507;SDS011;9383;50.928;12.116;2022-09-27T12:22:50;2.53;;;2.10;;
18507;SDS011;9383;50.928;12.116;2022-09-27T12:25:27;2.10;;;1.40;;
18507;SDS011;9383;50.928;12.116;2022-09-27T12:28:19;2.40;;;2.20;;
18507;SDS011;9383;50.928;12.116;2022-09-27T12:30:53;5.97;;;5.40;;
18507;SDS011;9383;50.928;12.116;2022-09-27T12:36:05;1.70;;;1.60;;
18507;SDS011;9383;50.928;12.116;2022-09-27T12:38:43;1.58;;;1.48;;
18507;SDS011;9383;50.928;12.116;2022-09-27T12:41:21;1.02;;;1.02;;
18507;SDS011;9383;50.928;12.116;2022-09-27T12:43:49;1.58;;;1.15;;
18507;SDS011;9383;50.928;12.116;2022-09-27T12:46:35;1.98;;;1.40;;
18507;SDS011;9383;50.928;12.116;2022-09-27T12:52:13;1.27;;;1.23;;
18507;SDS011;9383;50.928;12.116;2022-09-27T12:55:12;1.77;;;1.40;;
18507;SDS011;9383;50.928;12.116;2022-09-27T13:01:13;2.05;;;1.95;;
18507;SDS011;9383;50.928;12.116;2022-09-27T13:04:09;1.85;;;1.45;;
18507;SDS011;9383;50.928;12.116;2022-09-27T13:10:19;2.45;;;1.70;;
18507;SDS011;9383;50.928;12.116;2022-09-27T13:13:20;2.17;;;2.00;;
18507;SDS011;9383;50.928;12.116;2022-09-27T13:15:53;1.58;;;1.48;;
18507;SDS011;9383;50.928;12.116;2022-09-27T13:18:30;2.05;;;1.80;;
18507;SDS011;9383;50.928;12.116;2022-09-27T13:21:02;2.40;;;1.63;;
18507;SDS011;9383;50.928;12.116;2022-09-27T13:26:01;2.88;;;2.58;;
18507;SDS011;9383;50.928;12.116;2022-09-27T13:29:19;3.75;;;2.72;;
18507;SDS011;9383;50.928;12.116;2022-09-27T13:40:21;4.30;;;3.63;;
18507;SDS011;9383;50.928;12.116;2022-09-27T13:45:37;7.13;;;5.75;;
18507;SDS011;9383;50.928;12.116;2022-09-27T13:51:01;2.75;;;1.90;;
18507;SDS011;9383;50.928;12.116;2022-09-27T13:54:05;1.35;;;1.25;;
18507;SDS011;9383;50.928;12.116;2022-09-27T14:00:18;4.57;;;1.15;;
18507;SDS011;9383;50.928;12.116;2022-09-27T14:02:53;0.82;;;0.80;;
18507;SDS011;9383;50.928;12.116;2022-09-27T14:05:54;2.08;;;1.10;;
18507;SDS011;9383;50.928;12.116;2022-09-27T14:08:42;2.13;;;1.13;;
18507;SDS011;9383;50.928;12.116;2022-09-27T14:11:35;2.17;;;1.00;;
18507;SDS011;9383;50.928;12.116;2022-09-27T14:14:13;2.95;;;0.95;;
18507;SDS011;9383;50.928;12.116;2022-09-27T14:16:47;2.70;;;1.00;;
18507;SDS011;9383;50.928;12.116;2022-09-27T14:19:14;1.80;;;0.98;;
18507;SDS011;9383;50.928;12.116;2022-09-27T14:21:47;5.43;;;1.25;;
18507;SDS011;9383;50.928;12.116;2022-09-27T14:24:21;1.10;;;1.08;;
18507;SDS011;9383;50.928;12.116;2022-09-27T14:29:40;1.30;;;1.00;;
18507;SDS011;9383;50.928;12.116;2022-09-27T14:32:18;1.88;;;1.02;;
18507;SDS011;9383;50.928;12.116;2022-09-27T14:35:08;1.60;;;0.90;;
18507;SDS011;9383;50.928;12.116;2022-09-27T14:38:00;0.93;;;0.93;;
18507;SDS011;9383;50.928;12.116;2022-09-27T14:40:30;1.33;;;0.80;;
18507;SDS011;9383;50.928;12.116;2022-09-27T14:43:05;0.90;;;0.90;;
18507;SDS011;9383;50.928;12.116;2022-09-27T14:45:37;2.10;;;1.63;;
18507;SDS011;9383;50.928;12.116;2022-09-27T14:53:42;2.17;;;1.95;;
18507;SDS011;9383;50.928;12.116;2022-09-27T14:56:16;3.10;;;2.83;;
18507;SDS011;9383;50.928;12.116;2022-09-27T14:58:51;2.45;;;2.25;;
18507;SDS011;9383;50.928;12.116;2022-09-27T15:01:36;2.08;;;1.90;;
18507;SDS011;9383;50.928;12.116;2022-09-27T15:04:05;1.50;;;1.50;;
18507;SDS011;9383;50.928;12.116;2022-09-27T15:06:42;1.20;;;1.20;;
18507;SDS011;9383;50.928;12.116;2022-09-27T15:09:12;2.42;;;1.58;;
18507;SDS011;9383;50.928;12.116;2022-09-27T15:11:43;2.55;;;1.58;;
18507;SDS011;9383;50.928;12.116;2022-09-27T15:14:16;3.53;;;1.40;;
18507;SDS011;9383;50.928;12.116;2022-09-27T15:16:46;1.67;;;1.25;;
18507;SDS011;9383;50.928;12.116;2022-09-27T15:19:17;2.75;;;1.10;;
18507;SDS011;9383;50.928;12.116;2022-09-27T15:21:55;0.73;;;0.73;;
18507;SDS011;9383;50.928;12.116;2022-09-27T15:24:44;2.50;;;0.90;;
18507;SDS011;9383;50.928;12.116;2022-09-27T15:27:18;1.10;;;0.90;;
18507;SDS011;9383;50.928;12.116;2022-09-27T15:29:52;2.38;;;1.10;;
18507;SDS011;9383;50.928;12.116;2022-09-27T15:32:23;1.10;;;0.90;;
18507;SDS011;9383;50.928;12.116;2022-09-27T15:34:52;0.90;;;0.85;;
18507;SDS011;9383;50.928;12.116;2022-09-27T15:37:33;2.15;;;1.05;;
18507;SDS011;9383;50.928;12.116;2022-09-27T15:42:54;0.98;;;0.93;;
18507;SDS011;9383;50.928;12.116;2022-09-27T15:45:31;4.03;;;1.50;;
18507;SDS011;9383;50.928;12.116;2022-09-27T15:48:12;1.13;;;1.02;;
18507;SDS011;9383;50.928;12.116;2022-09-27T15:50:42;1.92;;;1.30;;
18507;SDS011;9383;50.928;12.116;2022-09-27T15:53:08;1.08;;;1.08;;
18507;SDS011;9383;50.928;12.116;2022-09-27T15:55:39;1.30;;;1.27;;
18507;SDS011;9383;50.928;12.116;2022-09-27T15:58:14;1.80;;;1.70;;
18507;SDS011;9383;50.928;12.116;2022-09-27T16:00:54;2.47;;;1.50;;
18507;SDS011;9383;50.928;12.116;2022-09-27T16:03:24;2.60;;;1.50;;
18507;SDS011;9383;50.928;12.116;2022-09-27T16:06:00;1.60;;;1.50;;
18507;SDS011;9383;50.928;12.116;2022-09-27T16:08:38;2.30;;;1.70;;
18507;SDS011;9383;50.928;12.116;2022-09-27T16:11:05;2.38;;;1.60;;
18507;SDS011;9383;50.928;12.116;2022-09-27T16:13:36;1.50;;;1.40;;
18507;SDS011;9383;50.928;12.116;2022-09-27T16:16:03;1.58;;;1.48;;
18507;SDS011;9383;50.928;12.116;2022-09-27T16:18:31;1.30;;;1.30;;
18507;SDS011;9383;50.928;12.116;2022-09-27T16:20:58;1.98;;;1.20;;
18507;SDS011;9383;50.928;12.116;2022-09-27T16:23:25;1.40;;;1.20;;
18507;SDS011;9383;50.928;12.116;2022-09-27T16:25:52;1.15;;;0.93;;
18507;SDS011;9383;50.928;12.116;2022-09-27T16:28:19;1.45;;;1.27;;
18507;SDS011;9383;50.928;12.116;2022-09-27T16:30:46;1.00;;;0.90;;
18507;SDS011;9383;50.928;12.116;2022-09-27T16:33:16;0.85;;;0.85;;
18507;SDS011;9383;50.928;12.116;2022-09-27T16:35:42;1.05;;;0.98;;
18507;SDS011;9383;50.928;12.116;2022-09-27T16:38:09;1.92;;;1.17;;
18507;SDS011;9383;50.928;12.116;2022-09-27T16:40:35;0.88;;;0.88;;
18507;SDS011;9383;50.928;12.116;2022-09-27T16:43:02;2.00;;;1.20;;
18507;SDS011;9383;50.928;12.116;2022-09-27T16:45:32;2.83;;;1.48;;
18507;SDS011;9383;50.928;12.116;2022-09-27T16:48:00;1.50;;;1.33;;
18507;SDS011;9383;50.928;12.116;2022-09-27T16:50:27;1.70;;;0.93;;
18507;SDS011;9383;50.928;12.116;2022-09-27T16:53:11;1.95;;;1.05;;
18507;SDS011;9383;50.928;12.116;2022-09-27T16:55:38;1.08;;;1.05;;
18507;SDS011;9383;50.928;12.116;2022-09-27T16:58:04;1.13;;;1.05;;
18507;SDS011;9383;50.928;12.116;2022-09-27T17:00:33;2.10;;;1.08;;
18507;SDS011;9383;50.928;12.116;2022-09-27T17:02:59;1.67;;;1.48;;
18507;SDS011;9383;50.928;12.116;2022-09-27T17:05:25;1.35;;;1.25;;
18507;SDS011;9383;50.928;12.116;2022-09-27T17:07:51;2.15;;;1.15;;
18507;SDS011;9383;50.928;12.116;2022-09-27T17:10:21;2.25;;;1.42;;
18507;SDS011;9383;50.928;12.116;2022-09-27T17:12:48;2.05;;;1.38;;
18507;SDS011;9383;50.928;12.116;2022-09-27T17:15:15;4.20;;;1.30;;
18507;SDS011;9383;50.928;12.116;2022-09-27T17:17:42;3.70;;;1.40;;
18507;SDS011;9383;50.928;12.116;2022-09-27T17:20:09;2.13;;;1.80;;
18507;SDS011;9383;50.928;12.116;2022-09-27T17:22:39;2.17;;;1.98;;
18507;SDS011;9383;50.928;12.116;2022-09-27T17:25:05;3.10;;;2.00;;
18507;SDS011;9383;50.928;12.116;2022-09-27T17:27:32;3.15;;;2.40;;
18507;SDS011;9383;50.928;12.116;2022-09-27T17:30:01;1.80;;;1.70;;
18507;SDS011;9383;50.928;12.116;2022-09-27T17:32:28;1.80;;;1.58;;
18507;SDS011;9383;50.928;12.116;2022-09-27T17:34:54;1.70;;;1.60;;
18507;SDS011;9383;50.928;12.116;2022-09-27T17:37:23;2.95;;;1.48;;
18507;SDS011;9383;50.928;12.116;2022-09-27T17:39:49;3.38;;;1.75;;
18507;SDS011;9383;50.928;12.116;2022-09-27T17:42:15;1.65;;;1.45;;
18507;SDS011;9383;50.928;12.116;2022-09-27T17:44:43;3.85;;;2.53;;
18507;SDS011;9383;50.928;12.116;2022-09-27T17:47:10;1.70;;;1.60;;
18507;SDS011;9383;50.928;12.116;2022-09-27T17:49:55;2.15;;;1.40;;
18507;SDS011;9383;50.928;12.116;2022-09-27T17:52:39;2.22;;;1.60;;
18507;SDS011;9383;50.928;12.116;2022-09-27T17:55:06;1.88;;;1.77;;
18507;SDS011;9383;50.928;12.116;2022-09-27T17:57:33;2.88;;;1.70;;
18507;SDS011;9383;50.928;12.116;2022-09-27T17:59:59;3.40;;;2.10;;
18507;SDS011;9383;50.928;12.116;2022-09-27T18:02:26;5.25;;;2.53;;